sensor_id;sensor_type;location;lat;lon;timestamp;temperature;humidity
39427;DHT22;25938;48.470;1.486;2022-09-09T00:02:32;22.10;63.30
39427;DHT22;25938;48.470;1.486;2022-09-09T00:07:48;22.10;63.40
39427;DHT22;25938;48.470;1.486;2022-09-09T00:10:29;22.10;63.30
39427;DHT22;25938;48.470;1.486;2022-09-09T00:16:07;22.00;63.30
39427;DHT22;25938;48.470;1.486;2022-09-09T00:18:35;22.00;63.40
39427;DHT22;25938;48.470;1.486;2022-09-09T00:21:11;22.00;63.40
39427;DHT22;25938;48.470;1.486;2022-09-09T00:23:40;22.10;63.50
39427;DHT22;25938;48.470;1.486;2022-09-09T00:26:20;22.00;63.40
39427;DHT22;25938;48.470;1.486;2022-09-09T00:28:52;22.00;63.40
39427;DHT22;25938;48.470;1.486;2022-09-09T00:31:28;22.00;63.50
39427;DHT22;25938;48.470;1.486;2022-09-09T00:33:56;22.00;63.40
39427;DHT22;25938;48.470;1.486;2022-09-09T00:36:26;22.00;63.50
39427;DHT22;25938;48.470;1.486;2022-09-09T00:39:01;22.00;63.40
39427;DHT22;25938;48.470;1.486;2022-09-09T00:44:36;22.00;63.40
39427;DHT22;25938;48.470;1.486;2022-09-09T00:47:11;22.00;63.40
39427;DHT22;25938;48.470;1.486;2022-09-09T00:52:30;22.00;63.50
39427;DHT22;25938;48.470;1.486;2022-09-09T00:57:35;22.00;63.60
39427;DHT22;25938;48.470;1.486;2022-09-09T01:00:22;22.00;63.70
39427;DHT22;25938;48.470;1.486;2022-09-09T01:05:38;22.00;63.70
39427;DHT22;25938;48.470;1.486;2022-09-09T01:08:28;22.00;63.70
39427;DHT22;25938;48.470;1.486;2022-09-09T01:10:57;21.90;63.70
39427;DHT22;25938;48.470;1.486;2022-09-09T01:13:29;22.00;63.80
39427;DHT22;25938;48.470;1.486;2022-09-09T01:16:00;22.00;63.80
39427;DHT22;25938;48.470;1.486;2022-09-09T01:18:54;22.00;63.80
39427;DHT22;25938;48.470;1.486;2022-09-09T01:21:40;22.00;63.80
39427;DHT22;25938;48.470;1.486;2022-09-09T01:24:19;22.00;63.80
39427;DHT22;25938;48.470;1.486;2022-09-09T01:26:49;22.00;63.80
39427;DHT22;25938;48.470;1.486;2022-09-09T01:29:19;22.00;63.90
39427;DHT22;25938;48.470;1.486;2022-09-09T01:31:59;22.00;63.90
39427;DHT22;25938;48.470;1.486;2022-09-09T01:34:28;22.00;63.80
39427;DHT22;25938;48.470;1.486;2022-09-09T01:37:03;21.90;63.90
39427;DHT22;25938;48.470;1.486;2022-09-09T01:39:32;22.00;63.90
39427;DHT22;25938;48.470;1.486;2022-09-09T01:41:58;21.90;63.90
39427;DHT22;25938;48.470;1.486;2022-09-09T01:44:25;21.90;63.90
39427;DHT22;25938;48.470;1.486;2022-09-09T01:46:51;21.90;63.90
39427;DHT22;25938;48.470;1.486;2022-09-09T01:49:17;21.90;63.90
39427;DHT22;25938;48.470;1.486;2022-09-09T01:51:43;21.90;64.00
39427;DHT22;25938;48.470;1.486;2022-09-09T01:54:11;21.90;64.00
39427;DHT22;25938;48.470;1.486;2022-09-09T01:59:20;21.90;64.00
39427;DHT22;25938;48.470;1.486;2022-09-09T02:06:57;21.90;64.00
39427;DHT22;25938;48.470;1.486;2022-09-09T02:09:26;21.90;64.10
39427;DHT22;25938;48.470;1.486;2022-09-09T02:12:08;21.90;64.10
39427;DHT22;25938;48.470;1.486;2022-09-09T02:14:42;21.90;64.10
39427;DHT22;25938;48.470;1.486;2022-09-09T02:17:10;21.90;64.10
39427;DHT22;25938;48.470;1.486;2022-09-09T02:19:46;21.90;64.10
39427;DHT22;25938;48.470;1.486;2022-09-09T02:22:16;21.90;64.10
39427;DHT22;25938;48.470;1.486;2022-09-09T02:24:42;21.90;64.20
39427;DHT22;25938;48.470;1.486;2022-09-09T02:27:10;21.90;64.20
39427;DHT22;25938;48.470;1.486;2022-09-09T02:29:41;21.90;64.20
39427;DHT22;25938;48.470;1.486;2022-09-09T02:32:16;21.90;64.20
39427;DHT22;25938;48.470;1.486;2022-09-09T02:34:55;21.90;64.20
39427;DHT22;25938;48.470;1.486;2022-09-09T02:37:26;21.90;64.30
39427;DHT22;25938;48.470;1.486;2022-09-09T02:39:54;21.90;64.30
39427;DHT22;25938;48.470;1.486;2022-09-09T02:42:20;21.90;64.30
39427;DHT22;25938;48.470;1.486;2022-09-09T02:44:46;21.90;64.30
39427;DHT22;25938;48.470;1.486;2022-09-09T02:47:58;21.80;64.20
39427;DHT22;25938;48.470;1.486;2022-09-09T02:50:19;21.90;64.30
39427;DHT22;25938;48.470;1.486;2022-09-09T02:53:17;21.90;64.30
39427;DHT22;25938;48.470;1.486;2022-09-09T02:58:21;21.90;64.30
39427;DHT22;25938;48.470;1.486;2022-09-09T03:00:49;21.80;64.30
39427;DHT22;25938;48.470;1.486;2022-09-09T03:03:16;21.80;64.40
39427;DHT22;25938;48.470;1.486;2022-09-09T03:05:43;21.80;64.40
39427;DHT22;25938;48.470;1.486;2022-09-09T03:08:09;21.90;64.50
39427;DHT22;25938;48.470;1.486;2022-09-09T03:10:35;21.90;64.50
39427;DHT22;25938;48.470;1.486;2022-09-09T03:13:02;21.80;64.50
39427;DHT22;25938;48.470;1.486;2022-09-09T03:15:29;21.80;64.50
39427;DHT22;25938;48.470;1.486;2022-09-09T03:17:57;21.80;64.50
39427;DHT22;25938;48.470;1.486;2022-09-09T03:20:24;21.80;64.50
39427;DHT22;25938;48.470;1.486;2022-09-09T03:22:54;21.90;64.50
39427;DHT22;25938;48.470;1.486;2022-09-09T03:25:21;21.80;64.50
39427;DHT22;25938;48.470;1.486;2022-09-09T03:27:49;21.80;64.60
39427;DHT22;25938;48.470;1.486;2022-09-09T03:30:15;21.80;64.60
39427;DHT22;25938;48.470;1.486;2022-09-09T03:32:41;21.80;64.60
39427;DHT22;25938;48.470;1.486;2022-09-09T03:35:07;21.80;64.60
39427;DHT22;25938;48.470;1.486;2022-09-09T03:37:33;21.80;64.60
39427;DHT22;25938;48.470;1.486;2022-09-09T03:39:59;21.80;64.60
39427;DHT22;25938;48.470;1.486;2022-09-09T03:42:25;21.80;64.60
39427;DHT22;25938;48.470;1.486;2022-09-09T03:44:51;21.80;64.60
39427;DHT22;25938;48.470;1.486;2022-09-09T03:47:18;21.80;64.60
39427;DHT22;25938;48.470;1.486;2022-09-09T03:49:44;21.80;64.50
39427;DHT22;25938;48.470;1.486;2022-09-09T03:52:10;21.80;64.50
39427;DHT22;25938;48.470;1.486;2022-09-09T03:54:36;21.80;64.50
39427;DHT22;25938;48.470;1.486;2022-09-09T03:57:02;21.80;64.50
39427;DHT22;25938;48.470;1.486;2022-09-09T03:59:28;21.80;64.50
39427;DHT22;25938;48.470;1.486;2022-09-09T04:01:53;21.80;64.60
39427;DHT22;25938;48.470;1.486;2022-09-09T04:04:20;21.80;64.80
39427;DHT22;25938;48.470;1.486;2022-09-09T04:06:46;21.80;64.60
39427;DHT22;25938;48.470;1.486;2022-09-09T04:09:13;21.80;64.60
39427;DHT22;25938;48.470;1.486;2022-09-09T04:11:39;21.80;64.60
39427;DHT22;25938;48.470;1.486;2022-09-09T04:14:07;21.80;64.60
39427;DHT22;25938;48.470;1.486;2022-09-09T04:16:33;21.80;64.60
39427;DHT22;25938;48.470;1.486;2022-09-09T04:18:59;21.80;64.60
39427;DHT22;25938;48.470;1.486;2022-09-09T04:21:25;21.80;64.70
39427;DHT22;25938;48.470;1.486;2022-09-09T04:23:51;21.80;64.80
39427;DHT22;25938;48.470;1.486;2022-09-09T04:26:17;21.70;64.70
39427;DHT22;25938;48.470;1.486;2022-09-09T04:28:43;21.80;64.80
39427;DHT22;25938;48.470;1.486;2022-09-09T04:31:15;21.80;64.90
39427;DHT22;25938;48.470;1.486;2022-09-09T04:33:41;21.80;64.90
39427;DHT22;25938;48.470;1.486;2022-09-09T04:36:07;21.70;64.90
39427;DHT22;25938;48.470;1.486;2022-09-09T04:38:33;21.80;64.90
39427;DHT22;25938;48.470;1.486;2022-09-09T04:40:58;21.70;64.90
39427;DHT22;25938;48.470;1.486;2022-09-09T04:43:24;21.80;64.90
39427;DHT22;25938;48.470;1.486;2022-09-09T04:45:53;21.70;64.80
39427;DHT22;25938;48.470;1.486;2022-09-09T04:48:20;21.70;64.80
39427;DHT22;25938;48.470;1.486;2022-09-09T04:53:25;21.70;64.80
39427;DHT22;25938;48.470;1.486;2022-09-09T04:56:13;21.70;64.80
39427;DHT22;25938;48.470;1.486;2022-09-09T04:58:38;21.70;64.80
39427;DHT22;25938;48.470;1.486;2022-09-09T05:01:06;21.80;64.80
39427;DHT22;25938;48.470;1.486;2022-09-09T05:03:32;21.70;64.70
39427;DHT22;25938;48.470;1.486;2022-09-09T05:06:09;21.80;64.80
39427;DHT22;25938;48.470;1.486;2022-09-09T05:08:37;21.70;64.70
39427;DHT22;25938;48.470;1.486;2022-09-09T05:11:03;21.70;64.80
39427;DHT22;25938;48.470;1.486;2022-09-09T05:13:29;21.70;64.80
39427;DHT22;25938;48.470;1.486;2022-09-09T05:15:56;21.70;64.80
39427;DHT22;25938;48.470;1.486;2022-09-09T05:18:22;21.70;64.90
39427;DHT22;25938;48.470;1.486;2022-09-09T05:20:49;21.70;64.90
39427;DHT22;25938;48.470;1.486;2022-09-09T05:23:14;21.70;65.00
39427;DHT22;25938;48.470;1.486;2022-09-09T05:25:40;21.70;65.00
39427;DHT22;25938;48.470;1.486;2022-09-09T05:28:06;21.70;65.00
39427;DHT22;25938;48.470;1.486;2022-09-09T05:30:33;21.70;65.00
39427;DHT22;25938;48.470;1.486;2022-09-09T05:32:59;21.70;65.00
39427;DHT22;25938;48.470;1.486;2022-09-09T05:35:25;21.70;65.00
39427;DHT22;25938;48.470;1.486;2022-09-09T05:37:50;21.70;65.00
39427;DHT22;25938;48.470;1.486;2022-09-09T05:40:16;21.70;65.00
39427;DHT22;25938;48.470;1.486;2022-09-09T05:42:42;21.70;65.00
39427;DHT22;25938;48.470;1.486;2022-09-09T05:45:08;21.70;64.90
39427;DHT22;25938;48.470;1.486;2022-09-09T05:47:35;21.70;64.90
39427;DHT22;25938;48.470;1.486;2022-09-09T05:50:03;21.70;64.90
39427;DHT22;25938;48.470;1.486;2022-09-09T05:52:28;21.70;64.90
39427;DHT22;25938;48.470;1.486;2022-09-09T05:54:54;21.70;64.90
39427;DHT22;25938;48.470;1.486;2022-09-09T05:57:21;21.70;64.90
39427;DHT22;25938;48.470;1.486;2022-09-09T05:59:47;21.70;64.90
39427;DHT22;25938;48.470;1.486;2022-09-09T06:02:13;21.70;64.90
39427;DHT22;25938;48.470;1.486;2022-09-09T06:04:38;21.70;64.90
39427;DHT22;25938;48.470;1.486;2022-09-09T06:07:05;21.70;64.90
39427;DHT22;25938;48.470;1.486;2022-09-09T06:09:31;21.70;64.90
39427;DHT22;25938;48.470;1.486;2022-09-09T06:11:56;21.70;64.90
39427;DHT22;25938;48.470;1.486;2022-09-09T06:14:23;21.70;65.00
39427;DHT22;25938;48.470;1.486;2022-09-09T06:16:51;21.70;65.00
39427;DHT22;25938;48.470;1.486;2022-09-09T06:19:16;21.70;65.00
39427;DHT22;25938;48.470;1.486;2022-09-09T06:21:42;21.70;65.00
39427;DHT22;25938;48.470;1.486;2022-09-09T06:24:09;21.70;65.00
39427;DHT22;25938;48.470;1.486;2022-09-09T06:26:38;21.70;65.00
39427;DHT22;25938;48.470;1.486;2022-09-09T06:29:07;21.70;65.00
39427;DHT22;25938;48.470;1.486;2022-09-09T06:31:34;21.70;65.00
39427;DHT22;25938;48.470;1.486;2022-09-09T06:34:04;21.70;65.00
39427;DHT22;25938;48.470;1.486;2022-09-09T06:36:32;21.70;65.00
39427;DHT22;25938;48.470;1.486;2022-09-09T06:38:58;21.70;65.00
39427;DHT22;25938;48.470;1.486;2022-09-09T06:41:26;21.70;65.00
39427;DHT22;25938;48.470;1.486;2022-09-09T06:43:52;21.70;65.00
39427;DHT22;25938;48.470;1.486;2022-09-09T06:46:23;21.70;65.00
39427;DHT22;25938;48.470;1.486;2022-09-09T06:48:53;21.70;65.00
39427;DHT22;25938;48.470;1.486;2022-09-09T06:51:42;21.60;64.90
39427;DHT22;25938;48.470;1.486;2022-09-09T06:54:09;21.60;64.80
39427;DHT22;25938;48.470;1.486;2022-09-09T06:56:37;21.60;64.90
39427;DHT22;25938;48.470;1.486;2022-09-09T06:59:04;21.60;64.80
39427;DHT22;25938;48.470;1.486;2022-09-09T07:01:35;21.60;64.80
39427;DHT22;25938;48.470;1.486;2022-09-09T07:04:02;21.60;64.80
39427;DHT22;25938;48.470;1.486;2022-09-09T07:06:31;21.60;64.80
39427;DHT22;25938;48.470;1.486;2022-09-09T07:08:59;21.60;64.80
39427;DHT22;25938;48.470;1.486;2022-09-09T07:11:34;21.70;64.90
39427;DHT22;25938;48.470;1.486;2022-09-09T07:14:02;21.60;64.80
39427;DHT22;25938;48.470;1.486;2022-09-09T07:16:27;21.70;64.90
39427;DHT22;25938;48.470;1.486;2022-09-09T07:18:54;21.70;65.00
39427;DHT22;25938;48.470;1.486;2022-09-09T07:21:25;21.70;64.90
39427;DHT22;25938;48.470;1.486;2022-09-09T07:23:52;21.70;64.90
39427;DHT22;25938;48.470;1.486;2022-09-09T07:26:19;21.70;64.90
39427;DHT22;25938;48.470;1.486;2022-09-09T07:28:46;21.70;64.90
39427;DHT22;25938;48.470;1.486;2022-09-09T07:31:17;21.70;65.00
39427;DHT22;25938;48.470;1.486;2022-09-09T07:33:44;21.60;65.00
39427;DHT22;25938;48.470;1.486;2022-09-09T07:36:14;21.70;65.00
39427;DHT22;25938;48.470;1.486;2022-09-09T07:38:40;21.60;65.00
39427;DHT22;25938;48.470;1.486;2022-09-09T07:41:08;21.70;65.00
39427;DHT22;25938;48.470;1.486;2022-09-09T07:43:45;21.70;65.00
39427;DHT22;25938;48.470;1.486;2022-09-09T07:46:12;21.70;64.90
39427;DHT22;25938;48.470;1.486;2022-09-09T07:48:43;21.70;65.00
39427;DHT22;25938;48.470;1.486;2022-09-09T07:51:14;21.70;64.90
39427;DHT22;25938;48.470;1.486;2022-09-09T07:53:44;21.70;64.80
39427;DHT22;25938;48.470;1.486;2022-09-09T07:56:12;21.60;64.80
39427;DHT22;25938;48.470;1.486;2022-09-09T07:58:39;21.70;64.80
39427;DHT22;25938;48.470;1.486;2022-09-09T08:01:11;21.70;64.80
39427;DHT22;25938;48.470;1.486;2022-09-09T08:03:38;21.70;64.80
39427;DHT22;25938;48.470;1.486;2022-09-09T08:06:06;21.70;64.80
39427;DHT22;25938;48.470;1.486;2022-09-09T08:08:35;21.70;64.90
39427;DHT22;25938;48.470;1.486;2022-09-09T08:11:09;21.70;64.90
39427;DHT22;25938;48.470;1.486;2022-09-09T08:13:36;21.70;64.90
39427;DHT22;25938;48.470;1.486;2022-09-09T08:16:11;21.70;65.60
39427;DHT22;25938;48.470;1.486;2022-09-09T08:18:37;21.70;64.90
39427;DHT22;25938;48.470;1.486;2022-09-09T08:21:17;21.70;64.90
39427;DHT22;25938;48.470;1.486;2022-09-09T08:23:44;21.70;64.80
39427;DHT22;25938;48.470;1.486;2022-09-09T08:26:27;21.70;64.80
39427;DHT22;25938;48.470;1.486;2022-09-09T08:28:55;21.70;64.80
39427;DHT22;25938;48.470;1.486;2022-09-09T08:31:27;21.70;64.80
39427;DHT22;25938;48.470;1.486;2022-09-09T08:33:56;21.70;64.80
39427;DHT22;25938;48.470;1.486;2022-09-09T08:36:25;21.70;64.90
39427;DHT22;25938;48.470;1.486;2022-09-09T08:38:54;21.70;64.90
39427;DHT22;25938;48.470;1.486;2022-09-09T08:50:17;21.70;65.10
39427;DHT22;25938;48.470;1.486;2022-09-09T08:58:05;21.70;65.10
39427;DHT22;25938;48.470;1.486;2022-09-09T09:00:53;21.70;65.10
39427;DHT22;25938;48.470;1.486;2022-09-09T09:06:38;21.70;65.20
39427;DHT22;25938;48.470;1.486;2022-09-09T09:09:20;21.70;66.00
39427;DHT22;25938;48.470;1.486;2022-09-09T09:11:54;21.60;65.20
39427;DHT22;25938;48.470;1.486;2022-09-09T09:14:23;21.70;65.20
39427;DHT22;25938;48.470;1.486;2022-09-09T09:19:25;21.70;65.00
39427;DHT22;25938;48.470;1.486;2022-09-09T09:32:44;21.70;64.60
39427;DHT22;25938;48.470;1.486;2022-09-09T09:35:14;21.70;64.50
39427;DHT22;25938;48.470;1.486;2022-09-09T09:37:40;21.70;64.50
39427;DHT22;25938;48.470;1.486;2022-09-09T09:40:18;21.70;64.60
39427;DHT22;25938;48.470;1.486;2022-09-09T09:43:02;21.70;64.50
39427;DHT22;25938;48.470;1.486;2022-09-09T09:45:43;21.70;64.50
39427;DHT22;25938;48.470;1.486;2022-09-09T09:48:13;21.70;64.40
39427;DHT22;25938;48.470;1.486;2022-09-09T09:50:57;21.70;64.40
39427;DHT22;25938;48.470;1.486;2022-09-09T09:53:30;21.70;64.40
39427;DHT22;25938;48.470;1.486;2022-09-09T09:55:57;21.70;64.40
39427;DHT22;25938;48.470;1.486;2022-09-09T09:58:25;21.70;64.40
39427;DHT22;25938;48.470;1.486;2022-09-09T10:00:54;21.70;64.40
39427;DHT22;25938;48.470;1.486;2022-09-09T10:05:53;21.70;64.20
39427;DHT22;25938;48.470;1.486;2022-09-09T10:08:19;21.70;64.40
39427;DHT22;25938;48.470;1.486;2022-09-09T10:24:07;21.70;64.20
39427;DHT22;25938;48.470;1.486;2022-09-09T10:26:50;21.70;64.20
39427;DHT22;25938;48.470;1.486;2022-09-09T10:43:30;21.70;64.20
39427;DHT22;25938;48.470;1.486;2022-09-09T10:49:01;21.70;64.20
39427;DHT22;25938;48.470;1.486;2022-09-09T10:57:03;21.70;64.00
39427;DHT22;25938;48.470;1.486;2022-09-09T10:59:38;21.80;64.00
39427;DHT22;25938;48.470;1.486;2022-09-09T11:02:21;21.80;64.00
39427;DHT22;25938;48.470;1.486;2022-09-09T11:05:31;21.80;64.00
39427;DHT22;25938;48.470;1.486;2022-09-09T11:13:22;21.80;64.00
39427;DHT22;25938;48.470;1.486;2022-09-09T11:18:44;21.80;63.80
39427;DHT22;25938;48.470;1.486;2022-09-09T11:21:19;21.80;63.70
39427;DHT22;25938;48.470;1.486;2022-09-09T11:23:57;21.70;63.60
39427;DHT22;25938;48.470;1.486;2022-09-09T11:26:31;21.70;63.60
39427;DHT22;25938;48.470;1.486;2022-09-09T11:29:08;21.80;63.70
39427;DHT22;25938;48.470;1.486;2022-09-09T11:31:56;21.80;63.70
39427;DHT22;25938;48.470;1.486;2022-09-09T11:40:28;21.80;63.70
39427;DHT22;25938;48.470;1.486;2022-09-09T11:45:35;21.80;63.60
39427;DHT22;25938;48.470;1.486;2022-09-09T11:48:03;21.80;63.70
39427;DHT22;25938;48.470;1.486;2022-09-09T11:50:34;21.80;63.70
39427;DHT22;25938;48.470;1.486;2022-09-09T11:53:19;21.80;63.60
39427;DHT22;25938;48.470;1.486;2022-09-09T11:55:46;21.80;63.60
39427;DHT22;25938;48.470;1.486;2022-09-09T12:00:41;21.80;63.60
39427;DHT22;25938;48.470;1.486;2022-09-09T12:03:40;21.80;63.50
39427;DHT22;25938;48.470;1.486;2022-09-09T12:06:29;21.80;63.40
39427;DHT22;25938;48.470;1.486;2022-09-09T12:09:12;21.90;63.40
39427;DHT22;25938;48.470;1.486;2022-09-09T12:11:41;21.80;63.30
39427;DHT22;25938;48.470;1.486;2022-09-09T12:14:36;21.90;63.40
39427;DHT22;25938;48.470;1.486;2022-09-09T12:19:47;21.90;63.10
39427;DHT22;25938;48.470;1.486;2022-09-09T12:22:29;21.90;63.20
39427;DHT22;25938;48.470;1.486;2022-09-09T12:33:18;21.90;63.10
39427;DHT22;25938;48.470;1.486;2022-09-09T12:35:48;21.90;63.20
39427;DHT22;25938;48.470;1.486;2022-09-09T12:38:36;21.90;62.90
39427;DHT22;25938;48.470;1.486;2022-09-09T12:41:02;21.90;62.70
39427;DHT22;25938;48.470;1.486;2022-09-09T12:43:29;21.90;62.70
39427;DHT22;25938;48.470;1.486;2022-09-09T12:46:03;21.90;62.60
39427;DHT22;25938;48.470;1.486;2022-09-09T12:48:37;21.90;62.40
39427;DHT22;25938;48.470;1.486;2022-09-09T12:51:07;21.90;62.40
39427;DHT22;25938;48.470;1.486;2022-09-09T12:53:42;21.90;62.30
39427;DHT22;25938;48.470;1.486;2022-09-09T12:56:17;21.90;62.30
39427;DHT22;25938;48.470;1.486;2022-09-09T12:58:47;21.90;62.20
39427;DHT22;25938;48.470;1.486;2022-09-09T13:01:26;21.90;62.20
39427;DHT22;25938;48.470;1.486;2022-09-09T13:03:52;21.90;62.00
39427;DHT22;25938;48.470;1.486;2022-09-09T13:06:24;21.90;62.10
39427;DHT22;25938;48.470;1.486;2022-09-09T13:08:51;21.90;62.00
39427;DHT22;25938;48.470;1.486;2022-09-09T13:11:23;21.90;62.10
39427;DHT22;25938;48.470;1.486;2022-09-09T13:13:52;22.00;62.20
39427;DHT22;25938;48.470;1.486;2022-09-09T13:16:31;21.90;62.10
39427;DHT22;25938;48.470;1.486;2022-09-09T13:19:02;21.90;62.10
39427;DHT22;25938;48.470;1.486;2022-09-09T13:21:36;22.00;62.20
39427;DHT22;25938;48.470;1.486;2022-09-09T13:24:04;21.90;62.00
39427;DHT22;25938;48.470;1.486;2022-09-09T13:26:34;22.00;61.90
39427;DHT22;25938;48.470;1.486;2022-09-09T13:29:19;22.00;61.80
39427;DHT22;25938;48.470;1.486;2022-09-09T13:31:45;22.00;61.60
39427;DHT22;25938;48.470;1.486;2022-09-09T13:34:29;22.00;61.80
39427;DHT22;25938;48.470;1.486;2022-09-09T13:37:01;21.90;61.80
39427;DHT22;25938;48.470;1.486;2022-09-09T13:39:29;22.00;62.50
39427;DHT22;25938;48.470;1.486;2022-09-09T13:41:55;22.00;62.80
39427;DHT22;25938;48.470;1.486;2022-09-09T13:47:03;22.00;63.60
39427;DHT22;25938;48.470;1.486;2022-09-09T13:49:30;22.00;64.60
39427;DHT22;25938;48.470;1.486;2022-09-09T13:52:10;22.00;64.20
39427;DHT22;25938;48.470;1.486;2022-09-09T13:54:36;22.00;64.70
39427;DHT22;25938;48.470;1.486;2022-09-09T13:57:02;22.00;64.90
39427;DHT22;25938;48.470;1.486;2022-09-09T13:59:30;22.00;64.80
39427;DHT22;25938;48.470;1.486;2022-09-09T14:01:55;22.00;65.20
39427;DHT22;25938;48.470;1.486;2022-09-09T14:04:21;22.00;65.80
39427;DHT22;25938;48.470;1.486;2022-09-09T14:06:48;22.00;66.40
39427;DHT22;25938;48.470;1.486;2022-09-09T14:09:16;22.00;66.90
39427;DHT22;25938;48.470;1.486;2022-09-09T14:11:44;22.00;67.20
39427;DHT22;25938;48.470;1.486;2022-09-09T14:14:11;22.00;67.40
39427;DHT22;25938;48.470;1.486;2022-09-09T14:16:36;22.00;67.60
39427;DHT22;25938;48.470;1.486;2022-09-09T14:19:03;22.00;67.90
39427;DHT22;25938;48.470;1.486;2022-09-09T14:21:28;22.10;68.20
39427;DHT22;25938;48.470;1.486;2022-09-09T14:23:54;22.00;68.40
39427;DHT22;25938;48.470;1.486;2022-09-09T14:26:21;22.00;68.50
39427;DHT22;25938;48.470;1.486;2022-09-09T14:28:47;22.00;68.60
39427;DHT22;25938;48.470;1.486;2022-09-09T14:31:13;22.10;68.70
39427;DHT22;25938;48.470;1.486;2022-09-09T14:33:39;22.00;68.60
39427;DHT22;25938;48.470;1.486;2022-09-09T14:36:06;22.00;68.50
39427;DHT22;25938;48.470;1.486;2022-09-09T14:38:37;22.00;68.50
39427;DHT22;25938;48.470;1.486;2022-09-09T14:41:10;22.00;68.80
39427;DHT22;25938;48.470;1.486;2022-09-09T14:43:37;22.00;68.70
39427;DHT22;25938;48.470;1.486;2022-09-09T14:46:08;22.00;68.80
39427;DHT22;25938;48.470;1.486;2022-09-09T14:48:34;22.00;69.00
39427;DHT22;25938;48.470;1.486;2022-09-09T14:51:08;22.00;68.90
39427;DHT22;25938;48.470;1.486;2022-09-09T14:53:34;22.00;69.40
39427;DHT22;25938;48.470;1.486;2022-09-09T14:56:08;22.00;69.10
39427;DHT22;25938;48.470;1.486;2022-09-09T14:58:34;22.00;69.40
39427;DHT22;25938;48.470;1.486;2022-09-09T15:01:08;22.00;69.30
39427;DHT22;25938;48.470;1.486;2022-09-09T15:03:38;22.00;69.60
39427;DHT22;25938;48.470;1.486;2022-09-09T15:06:14;22.00;69.30
39427;DHT22;25938;48.470;1.486;2022-09-09T15:08:44;22.00;69.70
39427;DHT22;25938;48.470;1.486;2022-09-09T15:11:11;22.00;69.60
39427;DHT22;25938;48.470;1.486;2022-09-09T15:13:39;22.00;69.40
39427;DHT22;25938;48.470;1.486;2022-09-09T15:16:15;22.00;69.40
39427;DHT22;25938;48.470;1.486;2022-09-09T15:18:41;22.00;69.40
39427;DHT22;25938;48.470;1.486;2022-09-09T15:21:19;22.00;69.40
39427;DHT22;25938;48.470;1.486;2022-09-09T15:23:46;22.00;69.80
39427;DHT22;25938;48.470;1.486;2022-09-09T15:26:13;22.00;69.60
39427;DHT22;25938;48.470;1.486;2022-09-09T15:28:43;22.00;69.60
39427;DHT22;25938;48.470;1.486;2022-09-09T15:31:15;22.00;69.80
39427;DHT22;25938;48.470;1.486;2022-09-09T15:33:47;22.00;70.00
39427;DHT22;25938;48.470;1.486;2022-09-09T15:36:22;22.00;70.10
39427;DHT22;25938;48.470;1.486;2022-09-09T15:38:49;22.00;70.10
39427;DHT22;25938;48.470;1.486;2022-09-09T15:41:16;22.00;70.00
39427;DHT22;25938;48.470;1.486;2022-09-09T15:44:01;22.00;70.00
39427;DHT22;25938;48.470;1.486;2022-09-09T15:48:54;22.00;69.60
39427;DHT22;25938;48.470;1.486;2022-09-09T15:51:21;22.00;69.60
39427;DHT22;25938;48.470;1.486;2022-09-09T15:53:51;22.00;69.70
39427;DHT22;25938;48.470;1.486;2022-09-09T15:56:19;22.00;69.70
39427;DHT22;25938;48.470;1.486;2022-09-09T15:58:44;22.00;69.80
39427;DHT22;25938;48.470;1.486;2022-09-09T16:01:10;22.00;69.70
39427;DHT22;25938;48.470;1.486;2022-09-09T16:03:41;21.90;69.80
39427;DHT22;25938;48.470;1.486;2022-09-09T16:06:08;22.00;70.00
39427;DHT22;25938;48.470;1.486;2022-09-09T16:08:41;22.00;70.00
39427;DHT22;25938;48.470;1.486;2022-09-09T16:11:12;22.00;70.00
39427;DHT22;25938;48.470;1.486;2022-09-09T16:13:40;22.00;70.10
39427;DHT22;25938;48.470;1.486;2022-09-09T16:16:06;22.00;70.10
39427;DHT22;25938;48.470;1.486;2022-09-09T16:18:59;22.00;70.30
39427;DHT22;25938;48.470;1.486;2022-09-09T16:21:32;22.00;70.80
39427;DHT22;25938;48.470;1.486;2022-09-09T16:24:00;22.00;70.60
39427;DHT22;25938;48.470;1.486;2022-09-09T16:26:27;22.00;70.50
39427;DHT22;25938;48.470;1.486;2022-09-09T16:28:52;22.00;70.60
39427;DHT22;25938;48.470;1.486;2022-09-09T16:31:22;22.00;70.70
39427;DHT22;25938;48.470;1.486;2022-09-09T16:33:48;22.00;70.70
39427;DHT22;25938;48.470;1.486;2022-09-09T16:36:24;22.00;70.70
39427;DHT22;25938;48.470;1.486;2022-09-09T16:38:55;22.00;71.50
39427;DHT22;25938;48.470;1.486;2022-09-09T16:41:22;22.00;70.90
39427;DHT22;25938;48.470;1.486;2022-09-09T16:43:53;22.00;70.80
39427;DHT22;25938;48.470;1.486;2022-09-09T16:46:19;22.00;70.90
39427;DHT22;25938;48.470;1.486;2022-09-09T16:48:46;22.00;70.80
39427;DHT22;25938;48.470;1.486;2022-09-09T16:51:18;22.00;70.90
39427;DHT22;25938;48.470;1.486;2022-09-09T16:53:44;22.00;71.00
39427;DHT22;25938;48.470;1.486;2022-09-09T16:56:12;22.00;70.90
39427;DHT22;25938;48.470;1.486;2022-09-09T16:58:38;22.00;70.90
39427;DHT22;25938;48.470;1.486;2022-09-09T17:01:04;22.00;70.80
39427;DHT22;25938;48.470;1.486;2022-09-09T17:03:31;22.00;70.80
39427;DHT22;25938;48.470;1.486;2022-09-09T17:05:58;22.00;70.90
39427;DHT22;25938;48.470;1.486;2022-09-09T17:08:30;22.00;70.90
39427;DHT22;25938;48.470;1.486;2022-09-09T17:10:57;22.00;70.90
39427;DHT22;25938;48.470;1.486;2022-09-09T17:13:23;22.00;70.90
39427;DHT22;25938;48.470;1.486;2022-09-09T17:15:48;22.00;70.90
39427;DHT22;25938;48.470;1.486;2022-09-09T17:18:14;22.00;71.00
39427;DHT22;25938;48.470;1.486;2022-09-09T17:20:41;22.00;71.00
39427;DHT22;25938;48.470;1.486;2022-09-09T17:23:08;22.00;71.10
39427;DHT22;25938;48.470;1.486;2022-09-09T17:25:34;22.00;71.10
39427;DHT22;25938;48.470;1.486;2022-09-09T17:28:01;22.00;71.10
39427;DHT22;25938;48.470;1.486;2022-09-09T17:30:27;22.00;71.00
39427;DHT22;25938;48.470;1.486;2022-09-09T17:32:53;22.00;71.00
39427;DHT22;25938;48.470;1.486;2022-09-09T17:35:19;22.00;70.90
39427;DHT22;25938;48.470;1.486;2022-09-09T17:37:45;22.00;70.90
39427;DHT22;25938;48.470;1.486;2022-09-09T17:40:11;22.00;70.90
39427;DHT22;25938;48.470;1.486;2022-09-09T17:42:36;22.00;70.90
39427;DHT22;25938;48.470;1.486;2022-09-09T17:45:03;22.00;71.00
39427;DHT22;25938;48.470;1.486;2022-09-09T17:47:28;22.00;71.00
39427;DHT22;25938;48.470;1.486;2022-09-09T17:49:56;22.00;71.00
39427;DHT22;25938;48.470;1.486;2022-09-09T17:52:22;22.00;71.00
39427;DHT22;25938;48.470;1.486;2022-09-09T17:54:48;22.00;71.10
39427;DHT22;25938;48.470;1.486;2022-09-09T17:57:15;22.00;71.00
39427;DHT22;25938;48.470;1.486;2022-09-09T17:59:42;22.00;71.00
39427;DHT22;25938;48.470;1.486;2022-09-09T18:02:10;22.00;70.90
39427;DHT22;25938;48.470;1.486;2022-09-09T18:04:36;22.00;71.00